Time;durP1;ratioP1;P1;durP2;ratioP2;P2;SDS_P1;SDS_P2;PMS_P1;PMS_P2;Temp;Humidity;BMP_temperature;BMP_pressure;BME280_temperature;BME280_humidity;BME280_pressure;Samples;Min_cycle;Max_cycle;Signal;HPM_P1;HPM_P2
2023/09/28 00:03:00;;;;;;;7.23;4.90;;;;;;;;;;5035507;28;20215;-83
2023/09/28 00:05:28;;;;;;;6.83;4.83;;;;;;;;;;5018621;28;20304;-81
2023/09/28 00:07:56;;;;;;;9.43;6.13;;;;;;;;;;5019467;28;20714;-83
2023/09/28 00:10:23;;;;;;;13.47;8.03;;;;;;;;;;5042411;28;20207;-85
2023/09/28 00:12:52;;;;;;;17.43;9.73;;;;;;;;;;5028070;28;20254;-80
2023/09/28 00:15:19;;;;;;;20.23;11.50;;;;;;;;;;5038759;28;20246;-84
2023/09/28 00:17:51;;;;;;;20.37;11.37;;;;;;;;;;5037123;28;20231;-81
2023/09/28 00:20:20;;;;;;;24.03;13.13;;;;;;;;;;5018789;28;20255;-81
2023/09/28 00:22:49;;;;;;;19.93;11.00;;;;;;;;;;5028949;28;20250;-82
2023/09/28 00:25:17;;;;;;;15.10;9.30;;;;;;;;;;5037039;28;20266;-82
2023/09/28 00:27:45;;;;;;;14.10;9.47;;;;;;;;;;5025642;28;20217;-82
2023/09/28 00:30:13;;;;;;;18.83;12.23;;;;;;;;;;5033374;28;20207;-83
2023/09/28 00:32:44;;;;;;;28.17;16.47;;;;;;;;;;5025308;28;20844;-82
2023/09/28 00:35:11;;;;;;;24.20;14.80;;;;;;;;;;5039780;28;20634;-83
2023/09/28 00:37:38;;;;;;;18.87;12.50;;;;;;;;;;5039857;28;20209;-83
2023/09/28 00:40:19;;;;;;;10.17;6.07;;;;;;;;;;5040652;28;20199;-83
2023/09/28 00:42:48;;;;;;;11.47;7.63;;;;;;;;;;5036761;28;20840;-81
2023/09/28 00:45:15;;;;;;;9.43;6.20;;;;;;;;;;5036004;28;20223;-81
2023/09/28 00:47:43;;;;;;;8.07;6.17;;;;;;;;;;5042640;28;20268;-82
2023/09/28 00:50:11;;;;;;;6.67;5.40;;;;;;;;;;5033175;28;20243;-83
2023/09/28 00:52:40;;;;;;;8.83;5.30;;;;;;;;;;5038152;28;20233;-84
2023/09/28 00:55:08;;;;;;;8.10;5.60;;;;;;;;;;5018743;28;20274;-80
2023/09/28 00:57:39;;;;;;;6.57;4.50;;;;;;;;;;5029815;28;20202;-81
2023/09/28 01:00:18;;;;;;;5.10;4.57;;;;;;;;;;5036586;28;20267;-82
2023/09/28 01:02:50;;;;;;;4.80;4.00;;;;;;;;;;5031607;28;20210;-82
2023/09/28 01:05:19;;;;;;;4.57;3.43;;;;;;;;;;5036731;28;20222;-80
2023/09/28 01:07:47;;;;;;;4.63;3.60;;;;;;;;;;5028157;28;20241;-82
2023/09/28 01:10:20;;;;;;;4.27;3.57;;;;;;;;;;5046301;28;20217;-83
2023/09/28 01:12:48;;;;;;;5.73;2.97;;;;;;;;;;5035136;28;20225;-83
2023/09/28 01:15:16;;;;;;;3.60;2.93;;;;;;;;;;5031130;28;20238;-81
2023/09/28 01:17:44;;;;;;;5.27;3.27;;;;;;;;;;5038731;28;20210;-83
2023/09/28 01:20:23;;;;;;;3.63;2.90;;;;;;;;;;5034599;28;20195;-81
2023/09/28 01:22:50;;;;;;;4.03;2.90;;;;;;;;;;5040612;28;20214;-84
2023/09/28 01:25:18;;;;;;;4.10;3.20;;;;;;;;;;5042368;28;20606;-82
2023/09/28 01:27:46;;;;;;;4.07;3.13;;;;;;;;;;5019801;28;20242;-82
2023/09/28 01:30:14;;;;;;;4.17;3.30;;;;;;;;;;5040831;28;20207;-83
2023/09/28 01:32:45;;;;;;;4.63;3.00;;;;;;;;;;5035306;28;20218;-82
2023/09/28 01:35:12;;;;;;;3.47;3.00;;;;;;;;;;5030122;28;20227;-81
2023/09/28 01:37:39;;;;;;;4.30;2.90;;;;;;;;;;5048155;28;20206;-83
2023/09/28 01:40:08;;;;;;;3.80;3.33;;;;;;;;;;5017300;28;20685;-82
2023/09/28 01:42:35;;;;;;;3.90;3.20;;;;;;;;;;5019750;28;20210;-82
2023/09/28 01:45:03;;;;;;;3.23;2.87;;;;;;;;;;5021105;28;20269;-83
2023/09/28 01:47:30;;;;;;;3.20;2.80;;;;;;;;;;5016620;28;20206;-80
2023/09/28 01:49:59;;;;;;;3.50;3.20;;;;;;;;;;5035174;28;20736;-82
2023/09/28 01:52:27;;;;;;;4.37;3.47;;;;;;;;;;5034220;28;20264;-83
2023/09/28 01:54:54;;;;;;;5.03;3.10;;;;;;;;;;5039062;28;20215;-84
2023/09/28 01:57:22;;;;;;;3.07;2.77;;;;;;;;;;5022208;28;20206;-84
2023/09/28 01:59:49;;;;;;;4.23;3.00;;;;;;;;;;5038889;28;20207;-81
2023/09/28 02:02:16;;;;;;;4.73;2.93;;;;;;;;;;5029152;28;20257;-83
2023/09/28 02:04:44;;;;;;;4.17;3.43;;;;;;;;;;5012545;28;20234;-81
2023/09/28 02:07:11;;;;;;;4.53;3.00;;;;;;;;;;5034642;28;20657;-81
2023/09/28 02:09:38;;;;;;;3.87;2.97;;;;;;;;;;5018009;28;20719;-81
2023/09/28 02:12:06;;;;;;;3.27;2.90;;;;;;;;;;5026188;28;20231;-84
2023/09/28 02:14:33;;;;;;;4.57;3.07;;;;;;;;;;5007793;28;20713;-84
2023/09/28 02:17:01;;;;;;;5.07;3.70;;;;;;;;;;5027508;28;20210;-82
2023/09/28 02:19:28;;;;;;;5.00;3.40;;;;;;;;;;5029390;28;20589;-81
2023/09/28 02:21:55;;;;;;;6.03;3.57;;;;;;;;;;5026754;28;20218;-84
2023/09/28 02:24:23;;;;;;;4.70;2.93;;;;;;;;;;5029421;28;20273;-83
2023/09/28 02:26:52;;;;;;;4.70;3.20;;;;;;;;;;5035202;28;20203;-80
2023/09/28 02:29:19;;;;;;;5.03;3.30;;;;;;;;;;5021922;28;20207;-84
2023/09/28 02:31:46;;;;;;;4.13;2.93;;;;;;;;;;5030591;28;20670;-81
2023/09/28 02:34:14;;;;;;;3.90;3.40;;;;;;;;;;5009036;28;20239;-81
2023/09/28 02:36:42;;;;;;;5.67;2.87;;;;;;;;;;5040703;28;20206;-82
2023/09/28 02:39:09;;;;;;;4.57;3.50;;;;;;;;;;5029761;28;20242;-84
2023/09/28 02:41:36;;;;;;;4.43;3.47;;;;;;;;;;5030993;28;20198;-83
2023/09/28 02:44:05;;;;;;;4.13;3.13;;;;;;;;;;5019343;28;20200;-83
2023/09/28 02:46:33;;;;;;;4.23;2.77;;;;;;;;;;5004512;28;20215;-82
2023/09/28 02:49:01;;;;;;;4.67;3.20;;;;;;;;;;5030839;28;20201;-84
2023/09/28 02:51:28;;;;;;;3.70;3.07;;;;;;;;;;5028389;28;20203;-82
2023/09/28 02:53:55;;;;;;;4.53;3.03;;;;;;;;;;5025190;28;20227;-80
2023/09/28 02:56:23;;;;;;;4.67;3.23;;;;;;;;;;5027928;28;20207;-82
2023/09/28 02:58:51;;;;;;;3.47;3.10;;;;;;;;;;5027048;28;20658;-84
2023/09/28 03:01:22;;;;;;;4.70;2.90;;;;;;;;;;5019374;28;20221;-82
2023/09/28 03:03:50;;;;;;;3.33;2.93;;;;;;;;;;5035483;28;20229;-80
2023/09/28 03:06:17;;;;;;;6.40;3.73;;;;;;;;;;5040316;28;20658;-81
2023/09/28 03:08:44;;;;;;;5.40;3.83;;;;;;;;;;5041444;28;20221;-83
2023/09/28 03:11:12;;;;;;;6.30;4.20;;;;;;;;;;5022183;28;20260;-81
2023/09/28 03:13:40;;;;;;;23.43;15.87;;;;;;;;;;5022822;28;20226;-83
2023/09/28 03:16:07;;;;;;;23.50;15.30;;;;;;;;;;5042326;28;20233;-80
2023/09/28 03:18:35;;;;;;;24.17;16.10;;;;;;;;;;5036681;28;20203;-82
2023/09/28 03:21:02;;;;;;;15.60;11.30;;;;;;;;;;5003190;28;20226;-83
2023/09/28 03:23:29;;;;;;;11.20;7.30;;;;;;;;;;5042993;28;20214;-83
2023/09/28 03:25:56;;;;;;;3.90;3.40;;;;;;;;;;5036168;28;20234;-83
2023/09/28 03:28:31;;;;;;;3.90;3.10;;;;;;;;;;5039975;28;20203;-82
2023/09/28 03:30:59;;;;;;;4.73;3.20;;;;;;;;;;5019807;28;20637;-82
2023/09/28 03:33:26;;;;;;;4.93;3.40;;;;;;;;;;5027623;28;20226;-83
2023/09/28 03:35:53;;;;;;;3.47;3.07;;;;;;;;;;5030039;28;20639;-82
2023/09/28 03:38:21;;;;;;;6.17;5.17;;;;;;;;;;5036980;28;20207;-83
2023/09/28 03:40:48;;;;;;;26.40;18.03;;;;;;;;;;5031394;28;20202;-83
2023/09/28 03:43:15;;;;;;;9.90;6.40;;;;;;;;;;5040812;28;20209;-83
2023/09/28 03:45:42;;;;;;;60.77;40.13;;;;;;;;;;5005425;28;20235;-83
2023/09/28 03:48:10;;;;;;;20.80;16.17;;;;;;;;;;5035251;28;20207;-81
2023/09/28 03:50:37;;;;;;;12.87;10.17;;;;;;;;;;5024918;28;20211;-83
2023/09/28 03:53:05;;;;;;;16.97;12.40;;;;;;;;;;5024161;28;20500;-82
2023/09/28 03:55:32;;;;;;;24.67;18.33;;;;;;;;;;5029998;28;20225;-83
2023/09/28 03:58:00;;;;;;;35.37;25.77;;;;;;;;;;5020819;28;20199;-83
2023/09/28 04:00:28;;;;;;;22.30;15.00;;;;;;;;;;5024208;28;20207;-81
2023/09/28 04:02:55;;;;;;;17.57;13.07;;;;;;;;;;5019524;28;20214;-83
2023/09/28 04:05:25;;;;;;;18.40;12.77;;;;;;;;;;5009098;28;20219;-83
2023/09/28 04:07:53;;;;;;;12.90;9.07;;;;;;;;;;5032329;28;20210;-84
2023/09/28 04:10:21;;;;;;;6.53;5.13;;;;;;;;;;5028994;28;20206;-81
2023/09/28 04:12:50;;;;;;;22.10;16.20;;;;;;;;;;5036080;28;20229;-80
2023/09/28 04:15:17;;;;;;;13.57;10.73;;;;;;;;;;5030139;28;20246;-81
2023/09/28 04:17:45;;;;;;;9.73;7.60;;;;;;;;;;5029090;28;20211;-80
2023/09/28 04:20:13;;;;;;;11.17;7.80;;;;;;;;;;5036010;28;20200;-83
2023/09/28 04:22:40;;;;;;;11.07;8.30;;;;;;;;;;5033481;28;20218;-82
2023/09/28 04:25:08;;;;;;;6.90;5.83;;;;;;;;;;5025948;28;20235;-82
2023/09/28 04:27:35;;;;;;;8.80;6.67;;;;;;;;;;5025372;28;20294;-82
2023/09/28 04:30:03;;;;;;;6.83;5.60;;;;;;;;;;5021528;28;20207;-81
2023/09/28 04:32:31;;;;;;;8.77;7.23;;;;;;;;;;5035776;28;20215;-82
2023/09/28 04:34:59;;;;;;;8.93;5.33;;;;;;;;;;5005363;28;20223;-81
2023/09/28 04:37:26;;;;;;;5.10;4.40;;;;;;;;;;5016530;28;20228;-84
2023/09/28 04:39:54;;;;;;;5.07;4.23;;;;;;;;;;5031328;28;20229;-82
2023/09/28 04:42:21;;;;;;;6.30;4.27;;;;;;;;;;5021714;28;20216;-83
2023/09/28 04:44:49;;;;;;;7.53;4.33;;;;;;;;;;5027143;28;20231;-83
2023/09/28 04:47:17;;;;;;;5.43;4.00;;;;;;;;;;5029441;28;20751;-83
2023/09/28 04:49:45;;;;;;;5.43;4.37;;;;;;;;;;5007611;28;20207;-80
2023/09/28 04:52:13;;;;;;;4.97;3.83;;;;;;;;;;5020715;28;20941;-82
2023/09/28 04:54:41;;;;;;;5.70;4.03;;;;;;;;;;5027762;28;20219;-81
2023/09/28 04:57:08;;;;;;;5.47;4.20;;;;;;;;;;5025720;28;20233;-82
2023/09/28 04:59:40;;;;;;;7.17;4.90;;;;;;;;;;5031749;28;20215;-83
2023/09/28 05:02:08;;;;;;;6.20;5.00;;;;;;;;;;5034400;28;20868;-83
2023/09/28 05:04:36;;;;;;;5.77;4.70;;;;;;;;;;5012924;28;20317;-81
2023/09/28 05:07:04;;;;;;;9.33;7.13;;;;;;;;;;5004633;28;20199;-83
2023/09/28 05:09:31;;;;;;;8.10;6.00;;;;;;;;;;5010786;28;20394;-84
2023/09/28 05:12:00;;;;;;;6.87;5.33;;;;;;;;;;5034056;28;20210;-81
2023/09/28 05:14:27;;;;;;;7.80;6.43;;;;;;;;;;5036975;28;20288;-80
2023/09/28 05:16:56;;;;;;;9.53;6.60;;;;;;;;;;5031275;28;20258;-82
2023/09/28 05:19:25;;;;;;;7.77;6.37;;;;;;;;;;5009761;28;20206;-82
2023/09/28 05:21:52;;;;;;;12.90;7.80;;;;;;;;;;5001161;28;20202;-80
2023/09/28 05:24:19;;;;;;;9.07;7.03;;;;;;;;;;5025695;28;20223;-80
2023/09/28 05:26:47;;;;;;;9.13;6.90;;;;;;;;;;5028347;28;20259;-83
2023/09/28 05:29:14;;;;;;;8.43;6.13;;;;;;;;;;5007523;28;20221;-82
2023/09/28 05:31:42;;;;;;;8.27;5.07;;;;;;;;;;5008761;28;20294;-79
2023/09/28 05:34:09;;;;;;;12.30;8.13;;;;;;;;;;5012698;28;20231;-81
2023/09/28 05:36:36;;;;;;;9.37;5.50;;;;;;;;;;5023482;28;20207;-80
2023/09/28 05:39:04;;;;;;;7.37;4.07;;;;;;;;;;5026250;28;20214;-81
2023/09/28 05:41:32;;;;;;;6.70;4.00;;;;;;;;;;5024253;28;20230;-80
2023/09/28 05:43:59;;;;;;;6.60;4.47;;;;;;;;;;5013731;28;20207;-83
2023/09/28 05:46:27;;;;;;;6.17;4.47;;;;;;;;;;5025628;28;20664;-82
2023/09/28 05:48:54;;;;;;;5.97;4.10;;;;;;;;;;5027962;28;20203;-80
2023/09/28 05:51:21;;;;;;;6.67;4.93;;;;;;;;;;5030648;28;20293;-85
2023/09/28 05:53:52;;;;;;;8.23;4.93;;;;;;;;;;5008118;28;20282;-82
2023/09/28 05:56:21;;;;;;;8.37;4.90;;;;;;;;;;5022028;28;20834;-82
2023/09/28 05:58:48;;;;;;;7.47;4.63;;;;;;;;;;5026028;28;20253;-80
2023/09/28 06:01:21;;;;;;;5.90;5.07;;;;;;;;;;5034017;28;20718;-78
2023/09/28 06:03:48;;;;;;;5.40;4.67;;;;;;;;;;5025789;28;20207;-81
2023/09/28 06:06:17;;;;;;;6.17;4.60;;;;;;;;;;5014138;28;22750;-81
2023/09/28 06:08:46;;;;;;;4.83;4.03;;;;;;;;;;5013689;28;20203;-85
2023/09/28 06:11:14;;;;;;;7.20;5.20;;;;;;;;;;5020499;28;20215;-82
2023/09/28 06:13:42;;;;;;;6.50;4.93;;;;;;;;;;5001738;28;20233;-84
2023/09/28 06:16:29;;;;;;;6.80;4.77;;;;;;;;;;5014565;28;20270;-83
2023/09/28 06:18:57;;;;;;;6.63;4.70;;;;;;;;;;5026877;28;20721;-77
2023/09/28 06:21:24;;;;;;;5.27;4.70;;;;;;;;;;5009414;28;20207;-82
2023/09/28 06:23:51;;;;;;;5.13;4.60;;;;;;;;;;5029528;28;20222;-82
2023/09/28 06:26:19;;;;;;;6.13;4.37;;;;;;;;;;5021517;28;20242;-84
2023/09/28 06:29:06;;;;;;;6.17;4.40;;;;;;;;;;5020999;28;20749;-81
2023/09/28 06:31:33;;;;;;;5.60;4.70;;;;;;;;;;5014607;28;20203;-84
2023/09/28 06:34:01;;;;;;;6.37;4.87;;;;;;;;;;5030254;28;20230;-81
2023/09/28 06:36:28;;;;;;;8.67;4.77;;;;;;;;;;5039140;28;20207;-79
2023/09/28 06:38:59;;;;;;;7.97;4.97;;;;;;;;;;5037895;28;20361;-82
2023/09/28 06:41:26;;;;;;;8.10;4.30;;;;;;;;;;5035450;28;20207;-80
2023/09/28 06:43:54;;;;;;;5.20;4.37;;;;;;;;;;5037222;28;20207;-83
2023/09/28 06:46:21;;;;;;;6.30;4.00;;;;;;;;;;5037159;28;20205;-81
2023/09/28 06:48:52;;;;;;;6.50;4.47;;;;;;;;;;5042376;28;20188;-82
2023/09/28 06:51:21;;;;;;;6.47;4.33;;;;;;;;;;5045070;28;20215;-80
2023/09/28 06:53:49;;;;;;;4.53;3.73;;;;;;;;;;5025947;28;20234;-83
2023/09/28 06:56:16;;;;;;;5.87;4.23;;;;;;;;;;5010578;28;20223;-79
2023/09/28 06:58:44;;;;;;;7.20;4.70;;;;;;;;;;5024036;28;20657;-84
2023/09/28 07:01:11;;;;;;;5.53;4.10;;;;;;;;;;5008635;28;20210;-82
2023/09/28 07:03:40;;;;;;;4.97;4.43;;;;;;;;;;5017100;28;22255;-84
2023/09/28 07:06:08;;;;;;;7.47;4.03;;;;;;;;;;5034046;28;20218;-81
2023/09/28 07:08:35;;;;;;;4.83;3.70;;;;;;;;;;5038627;28;20202;-83
2023/09/28 07:11:04;;;;;;;7.97;4.00;;;;;;;;;;5009659;28;20202;-84
2023/09/28 07:13:31;;;;;;;9.67;4.10;;;;;;;;;;5033038;28;20218;-83
2023/09/28 07:15:58;;;;;;;5.27;3.60;;;;;;;;;;5030353;28;20223;-82
2023/09/28 07:18:26;;;;;;;6.53;4.37;;;;;;;;;;5022517;28;20213;-85
2023/09/28 07:20:55;;;;;;;6.73;4.70;;;;;;;;;;5007140;28;20222;-83
2023/09/28 07:23:22;;;;;;;6.43;4.67;;;;;;;;;;5022686;28;20219;-80
2023/09/28 07:25:51;;;;;;;6.83;4.70;;;;;;;;;;5029705;28;20286;-83
2023/09/28 07:28:20;;;;;;;7.67;4.60;;;;;;;;;;5025147;28;20207;-81
2023/09/28 07:30:48;;;;;;;5.63;4.70;;;;;;;;;;5021682;28;20235;-83
2023/09/28 07:33:16;;;;;;;5.88;4.32;;;;;;;;;;5037421;28;20218;-79
2023/09/28 07:35:44;;;;;;;8.63;4.70;;;;;;;;;;5001711;28;20233;-82
2023/09/28 07:38:12;;;;;;;7.23;4.87;;;;;;;;;;5013381;28;20252;-80
2023/09/28 07:40:39;;;;;;;8.55;5.10;;;;;;;;;;5007421;28;20388;-81
2023/09/28 07:43:09;;;;;;;7.68;4.57;;;;;;;;;;5026773;28;20210;-82
2023/09/28 07:45:37;;;;;;;7.80;4.95;;;;;;;;;;5037425;28;20226;-80
2023/09/28 07:48:05;;;;;;;8.18;6.07;;;;;;;;;;5033038;28;20694;-77
2023/09/28 07:50:33;;;;;;;9.30;6.28;;;;;;;;;;5039722;28;20213;-83
2023/09/28 07:53:00;;;;;;;10.45;6.50;;;;;;;;;;5036841;28;20214;-81
2023/09/28 07:55:28;;;;;;;14.85;5.03;;;;;;;;;;5034328;28;20293;-85
2023/09/28 07:57:55;;;;;;;9.85;4.93;;;;;;;;;;5041406;28;20203;-81
2023/09/28 08:00:42;;;;;;;8.48;4.55;;;;;;;;;;5037488;28;20582;-85
2023/09/28 08:03:10;;;;;;;6.88;4.40;;;;;;;;;;5010031;28;20316;-84
2023/09/28 08:05:37;;;;;;;7.18;4.22;;;;;;;;;;5017431;28;20302;-79
2023/09/28 08:08:05;;;;;;;5.22;3.88;;;;;;;;;;5029597;28;20286;-79
2023/09/28 08:10:43;;;;;;;6.65;3.75;;;;;;;;;;5028931;28;20202;-82
2023/09/28 08:13:10;;;;;;;6.10;3.88;;;;;;;;;;5028150;28;20204;-83
2023/09/28 08:15:40;;;;;;;6.65;4.07;;;;;;;;;;5031498;28;20222;-82
2023/09/28 08:18:08;;;;;;;8.73;4.70;;;;;;;;;;5033650;28;20205;-82
2023/09/28 08:20:37;;;;;;;8.55;5.05;;;;;;;;;;5035549;28;20217;-80
2023/09/28 08:23:05;;;;;;;9.57;6.05;;;;;;;;;;5027984;28;20211;-82
2023/09/28 08:25:33;;;;;;;6.18;3.70;;;;;;;;;;5031153;28;20286;-79
2023/09/28 08:28:00;;;;;;;3.55;2.85;;;;;;;;;;5044769;28;20201;-82
2023/09/28 08:30:28;;;;;;;8.18;3.38;;;;;;;;;;5020602;28;20575;-83
2023/09/28 08:32:56;;;;;;;4.55;3.75;;;;;;;;;;5018601;28;20207;-81
2023/09/28 08:35:24;;;;;;;4.38;3.10;;;;;;;;;;5012279;28;20284;-83
2023/09/28 08:37:52;;;;;;;3.72;3.00;;;;;;;;;;5043794;28;20285;-84
2023/09/28 08:40:20;;;;;;;3.33;2.90;;;;;;;;;;5029707;28;20295;-82
2023/09/28 08:42:48;;;;;;;3.25;2.95;;;;;;;;;;5033755;28;20217;-83
2023/09/28 08:45:18;;;;;;;4.90;3.05;;;;;;;;;;5030242;28;20223;-84
2023/09/28 08:47:49;;;;;;;3.35;3.05;;;;;;;;;;5033283;28;20203;-80
2023/09/28 08:50:24;;;;;;;3.22;2.75;;;;;;;;;;5031284;28;20210;-82
2023/09/28 08:52:53;;;;;;;2.95;2.65;;;;;;;;;;5030705;28;20750;-87
2023/09/28 08:55:21;;;;;;;3.78;2.67;;;;;;;;;;5010696;28;20258;-82
2023/09/28 08:57:48;;;;;;;4.35;3.10;;;;;;;;;;5020496;28;20263;-86
2023/09/28 09:00:22;;;;;;;3.15;2.70;;;;;;;;;;5010252;28;20219;-86
2023/09/28 09:02:51;;;;;;;2.75;2.50;;;;;;;;;;5011695;28;20203;-86
2023/09/28 09:05:20;;;;;;;3.38;2.80;;;;;;;;;;5023285;28;20314;-82
2023/09/28 09:07:48;;;;;;;2.95;2.60;;;;;;;;;;5026634;28;20209;-82
2023/09/28 09:10:18;;;;;;;2.80;2.38;;;;;;;;;;5006881;28;20199;-83
2023/09/28 09:12:45;;;;;;;3.85;2.60;;;;;;;;;;5026412;28;20482;-87
2023/09/28 09:15:13;;;;;;;2.60;2.40;;;;;;;;;;5018856;28;20235;-83
2023/09/28 09:17:41;;;;;;;9.18;6.57;;;;;;;;;;5013538;28;20207;-87
2023/09/28 09:20:09;;;;;;;3.70;2.90;;;;;;;;;;5007897;28;20207;-85
2023/09/28 09:22:37;;;;;;;8.45;5.97;;;;;;;;;;5016314;28;20218;-84
2023/09/28 09:25:40;;;;;;;3.05;2.10;;;;;;;;;;5024798;28;20230;-81
2023/09/28 09:28:07;;;;;;;2.63;2.20;;;;;;;;;;5021947;28;20793;-82
2023/09/28 09:30:38;;;;;;;2.67;1.80;;;;;;;;;;5029588;28;20257;-80
2023/09/28 09:33:08;;;;;;;3.10;1.80;;;;;;;;;;5024580;28;23071;-84
2023/09/28 09:35:38;;;;;;;1.75;1.63;;;;;;;;;;5018272;28;20250;-81
2023/09/28 09:38:06;;;;;;;1.67;1.58;;;;;;;;;;5029106;28;20206;-81
2023/09/28 09:40:35;;;;;;;3.80;1.92;;;;;;;;;;5023615;28;20212;-82
2023/09/28 09:43:06;;;;;;;1.70;1.60;;;;;;;;;;5032583;28;20214;-84
2023/09/28 09:45:40;;;;;;;1.67;1.58;;;;;;;;;;5018939;28;20226;-84
2023/09/28 09:48:08;;;;;;;1.58;1.48;;;;;;;;;;5029181;28;20210;-82
2023/09/28 09:50:36;;;;;;;1.58;1.48;;;;;;;;;;5029018;28;20216;-85
2023/09/28 09:53:07;;;;;;;2.08;1.30;;;;;;;;;;5005189;28;20207;-84
2023/09/28 09:55:36;;;;;;;1.35;1.27;;;;;;;;;;5025155;28;20268;-80
2023/09/28 09:58:10;;;;;;;1.75;1.35;;;;;;;;;;5023214;28;20229;-87
2023/09/28 10:00:38;;;;;;;1.33;1.23;;;;;;;;;;5002578;28;20822;-83
2023/09/28 10:03:05;;;;;;;1.83;1.25;;;;;;;;;;5016959;28;20269;-84
2023/09/28 10:05:34;;;;;;;1.70;1.60;;;;;;;;;;5006709;28;20235;-84
2023/09/28 10:08:03;;;;;;;1.00;0.90;;;;;;;;;;5035091;28;20199;-84
2023/09/28 10:10:31;;;;;;;1.85;1.13;;;;;;;;;;5005630;28;20222;-82
2023/09/28 10:12:59;;;;;;;5.95;4.40;;;;;;;;;;5021808;28;20282;-82
2023/09/28 10:15:26;;;;;;;2.67;2.35;;;;;;;;;;5025340;28;20683;-85
2023/09/28 10:17:54;;;;;;;2.70;1.88;;;;;;;;;;5032386;28;20205;-82
2023/09/28 10:20:22;;;;;;;1.38;1.25;;;;;;;;;;5022457;28;20200;-82
2023/09/28 10:22:50;;;;;;;1.98;1.30;;;;;;;;;;5025905;28;20293;-85
2023/09/28 10:25:18;;;;;;;1.65;1.55;;;;;;;;;;5023260;28;20233;-80
2023/09/28 10:27:48;;;;;;;1.35;1.17;;;;;;;;;;5042337;28;20299;-80
2023/09/28 10:30:16;;;;;;;1.40;1.30;;;;;;;;;;5038117;28;20200;-82
2023/09/28 10:32:44;;;;;;;1.30;1.20;;;;;;;;;;5034136;28;20203;-79
2023/09/28 10:35:20;;;;;;;1.92;1.30;;;;;;;;;;5025735;28;20269;-85
2023/09/28 10:38:07;;;;;;;1.55;1.40;;;;;;;;;;5020521;28;20661;-84
2023/09/28 10:40:34;;;;;;;1.55;1.45;;;;;;;;;;5025355;28;20199;-84
2023/09/28 10:43:35;;;;;;;2.00;1.20;;;;;;;;;;5022678;28;20501;-86
2023/09/28 10:46:04;;;;;;;3.15;1.30;;;;;;;;;;5019533;28;20239;-83
2023/09/28 10:48:33;;;;;;;2.42;1.30;;;;;;;;;;5006649;28;20202;-86
2023/09/28 10:51:03;;;;;;;2.35;1.10;;;;;;;;;;5017845;28;20211;-85
2023/09/28 10:53:30;;;;;;;2.30;1.20;;;;;;;;;;5027394;28;20206;-81
2023/09/28 10:55:57;;;;;;;1.50;1.20;;;;;;;;;;5033061;28;20258;-83
2023/09/28 10:58:25;;;;;;;5.00;3.05;;;;;;;;;;5028381;28;20226;-83
2023/09/28 11:00:52;;;;;;;2.40;1.65;;;;;;;;;;5031283;28;20202;-82
2023/09/28 11:03:19;;;;;;;2.13;1.40;;;;;;;;;;5032571;28;20230;-84
2023/09/28 11:05:46;;;;;;;1.40;1.30;;;;;;;;;;5031699;28;20934;-83
2023/09/28 11:08:18;;;;;;;2.88;1.33;;;;;;;;;;5014027;28;20202;-84
2023/09/28 11:10:45;;;;;;;1.35;1.25;;;;;;;;;;5026577;28;20239;-80
2023/09/28 11:13:12;;;;;;;1.20;1.10;;;;;;;;;;5022132;28;20242;-81
2023/09/28 11:15:40;;;;;;;1.17;1.10;;;;;;;;;;5018135;28;20231;-79
2023/09/28 11:18:07;;;;;;;3.30;1.48;;;;;;;;;;5021691;28;20633;-80
2023/09/28 11:20:35;;;;;;;1.30;1.20;;;;;;;;;;5009620;28;20282;-84
2023/09/28 11:23:04;;;;;;;1.80;1.20;;;;;;;;;;5011610;28;20250;-86
2023/09/28 11:25:32;;;;;;;1.65;1.50;;;;;;;;;;5028948;28;20233;-82
2023/09/28 11:28:12;;;;;;;2.30;1.38;;;;;;;;;;5016882;28;20213;-87
2023/09/28 11:30:39;;;;;;;1.58;1.10;;;;;;;;;;5029968;28;20215;-82
2023/09/28 11:33:07;;;;;;;2.30;1.30;;;;;;;;;;5027223;28;20227;-82
2023/09/28 11:35:38;;;;;;;1.55;1.02;;;;;;;;;;5030504;28;20234;-81
2023/09/28 11:38:12;;;;;;;1.40;1.30;;;;;;;;;;5013508;28;20260;-86
2023/09/28 11:40:39;;;;;;;1.20;1.10;;;;;;;;;;5013892;28;20812;-83
2023/09/28 11:43:11;;;;;;;0.93;0.93;;;;;;;;;;5023783;28;20206;-84
2023/09/28 11:45:38;;;;;;;1.08;1.08;;;;;;;;;;5031305;28;20233;-82
2023/09/28 11:48:06;;;;;;;1.17;1.08;;;;;;;;;;5025727;28;20199;-82
2023/09/28 11:50:34;;;;;;;1.10;1.10;;;;;;;;;;5021985;28;20457;-82
2023/09/28 11:53:02;;;;;;;1.55;1.10;;;;;;;;;;5030254;28;20207;-84
2023/09/28 11:55:29;;;;;;;1.10;1.10;;;;;;;;;;5032192;28;20308;-83
2023/09/28 11:58:01;;;;;;;2.00;1.10;;;;;;;;;;5031895;28;20207;-83
2023/09/28 12:00:28;;;;;;;2.83;1.35;;;;;;;;;;5026248;28;20206;-85
2023/09/28 12:02:55;;;;;;;1.80;1.27;;;;;;;;;;5013433;28;20203;-86
2023/09/28 12:05:22;;;;;;;3.58;1.50;;;;;;;;;;5022969;28;20309;-85
2023/09/28 12:07:50;;;;;;;1.42;1.20;;;;;;;;;;5028312;28;20206;-82
2023/09/28 12:10:17;;;;;;;1.10;1.00;;;;;;;;;;5028777;28;20740;-81
2023/09/28 12:12:45;;;;;;;1.08;0.98;;;;;;;;;;5023378;28;20207;-82
2023/09/28 12:15:14;;;;;;;1.20;1.10;;;;;;;;;;5012178;28;20610;-79
2023/09/28 12:17:42;;;;;;;1.45;1.30;;;;;;;;;;5022944;28;20231;-80
2023/09/28 12:20:14;;;;;;;2.30;1.05;;;;;;;;;;5027203;28;20203;-83
2023/09/28 12:22:42;;;;;;;2.03;1.38;;;;;;;;;;5032838;28;20214;-82
2023/09/28 12:25:10;;;;;;;2.10;1.10;;;;;;;;;;5022861;28;20227;-82
2023/09/28 12:27:38;;;;;;;1.85;0.90;;;;;;;;;;5027450;28;20207;-81
2023/09/28 12:30:06;;;;;;;2.25;1.15;;;;;;;;;;5016056;28;20612;-80
2023/09/28 12:32:33;;;;;;;2.03;1.30;;;;;;;;;;5015169;28;20205;-83
2023/09/28 12:35:06;;;;;;;2.83;1.33;;;;;;;;;;5009531;28;20241;-81
2023/09/28 12:37:36;;;;;;;1.65;1.50;;;;;;;;;;5033383;28;20226;-83
2023/09/28 12:40:04;;;;;;;1.85;1.30;;;;;;;;;;5029396;28;20204;-84
2023/09/28 12:42:31;;;;;;;3.72;1.70;;;;;;;;;;5023681;28;20194;-83
2023/09/28 12:44:58;;;;;;;2.75;1.65;;;;;;;;;;5017855;28;20298;-82
2023/09/28 12:47:26;;;;;;;3.92;1.60;;;;;;;;;;5020632;28;20635;-81
2023/09/28 12:49:53;;;;;;;2.25;1.60;;;;;;;;;;5042617;28;20250;-84
2023/09/28 12:52:21;;;;;;;2.17;1.50;;;;;;;;;;5026742;28;20242;-81
2023/09/28 12:54:50;;;;;;;1.92;1.60;;;;;;;;;;5035804;28;20223;-82
2023/09/28 12:57:18;;;;;;;1.83;1.55;;;;;;;;;;5025715;28;20332;-82
2023/09/28 12:59:46;;;;;;;1.65;1.55;;;;;;;;;;5009763;28;20207;-84
2023/09/28 13:02:14;;;;;;;2.72;1.73;;;;;;;;;;5038311;28;20607;-84
2023/09/28 13:04:41;;;;;;;1.80;1.70;;;;;;;;;;5027106;28;20257;-81
2023/09/28 13:07:09;;;;;;;2.05;1.80;;;;;;;;;;5014260;28;20249;-83
2023/09/28 13:09:36;;;;;;;1.52;1.42;;;;;;;;;;5040316;28;20264;-82
2023/09/28 13:12:03;;;;;;;2.05;1.80;;;;;;;;;;5021551;28;20202;-81
2023/09/28 13:14:31;;;;;;;4.82;1.92;;;;;;;;;;5038281;28;20246;-82
2023/09/28 13:16:58;;;;;;;1.83;1.73;;;;;;;;;;5037319;28;20670;-83
2023/09/28 13:19:26;;;;;;;3.45;1.90;;;;;;;;;;5012677;28;20198;-84
2023/09/28 13:21:54;;;;;;;2.72;1.60;;;;;;;;;;5009920;28;20200;-84
2023/09/28 13:24:21;;;;;;;3.15;1.80;;;;;;;;;;5031717;28;20219;-81
2023/09/28 13:26:49;;;;;;;2.67;1.80;;;;;;;;;;5020529;28;20206;-84
2023/09/28 13:29:17;;;;;;;8.70;1.77;;;;;;;;;;5035659;28;20631;-83
2023/09/28 13:31:47;;;;;;;2.88;1.88;;;;;;;;;;5006095;28;20199;-84
2023/09/28 13:34:15;;;;;;;4.30;1.65;;;;;;;;;;5026276;28;20254;-80
2023/09/28 13:36:42;;;;;;;2.53;1.70;;;;;;;;;;5035183;28;20771;-82
2023/09/28 13:39:28;;;;;;;3.53;1.95;;;;;;;;;;5010765;28;20211;-80
2023/09/28 13:42:00;;;;;;;3.00;1.50;;;;;;;;;;5030047;28;20272;-83
2023/09/28 13:44:28;;;;;;;4.03;1.60;;;;;;;;;;5040563;28;20262;-81
2023/09/28 13:46:56;;;;;;;1.85;1.60;;;;;;;;;;5030029;28;20222;-83
2023/09/28 13:49:24;;;;;;;2.75;1.70;;;;;;;;;;5015372;28;20719;-84
2023/09/28 13:51:52;;;;;;;4.72;1.75;;;;;;;;;;5034112;28;20346;-81
2023/09/28 13:54:20;;;;;;;3.83;2.10;;;;;;;;;;5026270;28;20265;-79
2023/09/28 13:56:47;;;;;;;1.75;1.58;;;;;;;;;;5029994;28;20240;-82
2023/09/28 13:59:15;;;;;;;2.28;1.50;;;;;;;;;;5032305;28;20207;-85
2023/09/28 14:01:43;;;;;;;2.00;1.80;;;;;;;;;;5033152;28;20226;-78
2023/09/28 14:04:14;;;;;;;2.38;1.38;;;;;;;;;;5019803;28;20234;-79
2023/09/28 14:06:42;;;;;;;1.90;1.60;;;;;;;;;;5031144;28;20206;-85
2023/09/28 14:09:14;;;;;;;1.58;1.48;;;;;;;;;;5017493;28;20211;-84
2023/09/28 14:11:42;;;;;;;1.73;1.63;;;;;;;;;;5027187;28;20234;-83
2023/09/28 14:14:10;;;;;;;1.60;1.50;;;;;;;;;;5028596;28;20293;-82
2023/09/28 14:16:37;;;;;;;1.67;1.58;;;;;;;;;;5004845;28;20656;-83
2023/09/28 14:19:08;;;;;;;1.98;1.63;;;;;;;;;;5023671;28;20207;-83
2023/09/28 14:21:36;;;;;;;3.20;1.60;;;;;;;;;;5024405;28;20576;-82
2023/09/28 14:24:08;;;;;;;2.80;1.80;;;;;;;;;;5019958;28;20203;-82
2023/09/28 14:26:41;;;;;;;1.70;1.60;;;;;;;;;;5008266;28;20214;-79
2023/09/28 14:29:11;;;;;;;1.80;1.70;;;;;;;;;;5019127;28;20226;-83
2023/09/28 14:31:39;;;;;;;3.10;1.60;;;;;;;;;;5025651;28;20206;-86
2023/09/28 14:34:16;;;;;;;2.80;1.52;;;;;;;;;;5031400;28;20206;-89
2023/09/28 14:36:43;;;;;;;2.03;1.80;;;;;;;;;;5009070;28;20222;-86
2023/09/28 14:39:11;;;;;;;1.67;1.58;;;;;;;;;;5028068;28;20199;-85
2023/09/28 14:41:38;;;;;;;4.18;1.75;;;;;;;;;;5033219;28;20218;-82
2023/09/28 14:44:05;;;;;;;2.97;1.73;;;;;;;;;;5030633;28;20257;-83
2023/09/28 14:46:33;;;;;;;2.80;1.60;;;;;;;;;;5022368;28;20209;-83
2023/09/28 14:49:01;;;;;;;1.80;1.70;;;;;;;;;;5030780;28;20218;-84
2023/09/28 14:51:28;;;;;;;2.35;1.70;;;;;;;;;;5027294;28;20211;-80